Time;durP1;ratioP1;P1;durP2;ratioP2;P2;SDS_P1;SDS_P2;PMS_P1;PMS_P2;Temp;Humidity;BMP_temperature;BMP_pressure;BME280_temperature;BME280_humidity;BME280_pressure;Samples;Min_cycle;Max_cycle;Signal;HPM_P1;HPM_P2
2023/12/30 00:01:45;;;;;;;1.25;0.40;;;5.00;97.40;;;;;;4994937;28;20485;-72
2023/12/30 00:04:10;;;;;;;1.30;0.30;;;5.00;97.40;;;;;;4991800;28;20363;-73
2023/12/30 00:06:36;;;;;;;0.45;0.30;;;5.10;97.20;;;;;;4972520;28;20030;-72
2023/12/30 00:09:01;;;;;;;0.38;0.30;;;5.20;97.00;;;;;;4994461;28;20469;-72
2023/12/30 00:11:27;;;;;;;0.25;0.20;;;5.20;96.90;;;;;;4997230;28;20041;-72
2023/12/30 00:13:52;;;;;;;1.52;0.43;;;5.20;96.80;;;;;;4988228;28;20173;-72
2023/12/30 00:16:18;;;;;;;3.92;0.45;;;5.30;96.90;;;;;;4997267;28;20057;-72
2023/12/30 00:18:43;;;;;;;0.43;0.30;;;5.30;96.80;;;;;;4977536;28;20145;-72
2023/12/30 00:21:09;;;;;;;2.33;0.55;;;5.30;96.90;;;;;;4979151;28;20474;-72
2023/12/30 00:23:35;;;;;;;2.63;0.50;;;5.30;96.80;;;;;;4977678;28;20429;-72
2023/12/30 00:26:01;;;;;;;0.95;0.50;;;5.40;96.90;;;;;;4998452;28;20045;-72
2023/12/30 00:28:27;;;;;;;1.05;0.45;;;5.40;96.90;;;;;;4990885;28;20042;-72
2023/12/30 00:30:52;;;;;;;0.52;0.40;;;5.40;96.90;;;;;;5001494;28;20095;-72
2023/12/30 00:33:18;;;;;;;1.15;0.43;;;5.50;96.90;;;;;;5002427;28;20070;-71
2023/12/30 00:35:43;;;;;;;1.52;0.60;;;5.40;97.40;;;;;;5002179;28;20435;-72
2023/12/30 00:38:08;;;;;;;1.80;0.80;;;5.40;97.50;;;;;;4998973;28;20185;-71
2023/12/30 00:40:34;;;;;;;1.10;0.60;;;5.30;97.80;;;;;;4993258;28;20106;-72
2023/12/30 00:42:59;;;;;;;0.82;0.57;;;5.40;97.80;;;;;;4995501;28;20082;-71
2023/12/30 00:45:25;;;;;;;0.40;0.40;;;5.40;97.80;;;;;;4995620;28;20383;-71
2023/12/30 00:47:51;;;;;;;4.15;0.77;;;5.40;97.80;;;;;;4996366;28;20112;-71
2023/12/30 00:50:16;;;;;;;0.82;0.57;;;5.50;97.70;;;;;;4998764;28;20034;-71
2023/12/30 00:52:42;;;;;;;0.52;0.40;;;5.50;97.90;;;;;;4981627;28;20029;-71
2023/12/30 00:55:07;;;;;;;0.80;0.50;;;5.60;96.50;;;;;;4979691;28;20364;-70
2023/12/30 00:57:33;;;;;;;1.70;0.35;;;5.60;96.40;;;;;;4998483;28;20112;-71
2023/12/30 00:59:58;;;;;;;2.17;0.88;;;5.50;96.80;;;;;;4992089;28;20132;-71
2023/12/30 01:02:24;;;;;;;2.50;0.63;;;5.50;96.90;;;;;;4998869;28;20192;-71
2023/12/30 01:04:50;;;;;;;3.03;0.70;;;5.50;97.00;;;;;;4999951;28;20107;-71
2023/12/30 01:07:15;;;;;;;0.60;0.43;;;5.50;97.40;;;;;;5001405;28;20108;-72
2023/12/30 01:09:41;;;;;;;2.83;0.63;;;5.50;97.70;;;;;;4998028;28;20125;-72
2023/12/30 01:12:07;;;;;;;1.30;1.08;;;5.50;97.70;;;;;;4998769;28;20076;-72
2023/12/30 01:14:32;;;;;;;1.65;0.73;;;5.50;97.60;;;;;;4976677;28;20076;-71
2023/12/30 01:16:58;;;;;;;0.77;0.65;;;5.40;97.40;;;;;;4993732;28;20352;-71
2023/12/30 01:19:25;;;;;;;1.55;0.85;;;5.40;97.40;;;;;;4998321;28;20331;-71
2023/12/30 01:21:50;;;;;;;1.02;0.70;;;5.40;97.60;;;;;;4996908;28;20078;-72
2023/12/30 01:24:16;;;;;;;1.73;0.70;;;5.30;97.80;;;;;;4997749;28;20124;-72
2023/12/30 01:26:41;;;;;;;1.73;0.80;;;5.40;97.70;;;;;;4980597;28;20077;-71
2023/12/30 01:29:07;;;;;;;0.98;0.60;;;5.30;97.90;;;;;;4988692;28;20042;-72
2023/12/30 01:31:34;;;;;;;1.23;0.63;;;5.20;97.90;;;;;;4990922;28;20099;-71
2023/12/30 01:33:59;;;;;;;0.60;0.50;;;5.30;97.90;;;;;;4991132;28;20022;-72
2023/12/30 01:36:25;;;;;;;1.77;0.65;;;5.40;97.50;;;;;;4993815;28;20034;-72
2023/12/30 01:38:51;;;;;;;0.95;0.50;;;5.40;97.40;;;;;;4996371;28;20093;-72
2023/12/30 01:41:21;;;;;;;1.13;0.80;;;5.50;97.10;;;;;;4994851;28;20038;-72
2023/12/30 01:43:46;;;;;;;1.55;0.50;;;5.50;96.70;;;;;;4991765;28;20643;-72
2023/12/30 01:46:12;;;;;;;0.60;0.52;;;5.60;95.90;;;;;;4996258;28;20208;-71
2023/12/30 01:48:38;;;;;;;1.00;0.70;;;5.50;95.90;;;;;;4980016;28;20042;-72
2023/12/30 01:51:07;;;;;;;2.10;1.05;;;5.40;96.00;;;;;;4997716;28;20038;-72
2023/12/30 01:53:34;;;;;;;1.77;0.63;;;5.40;96.20;;;;;;4994754;28;20060;-72
2023/12/30 01:56:00;;;;;;;4.32;0.80;;;5.50;95.90;;;;;;4996362;28;20030;-72
2023/12/30 01:58:26;;;;;;;2.58;0.47;;;5.50;95.70;;;;;;4991794;28;20060;-72
2023/12/30 02:00:54;;;;;;;1.15;0.50;;;5.40;95.80;;;;;;4995388;28;20087;-72
2023/12/30 02:03:21;;;;;;;0.43;0.28;;;5.40;95.50;;;;;;4996575;28;20505;-71
2023/12/30 02:05:47;;;;;;;1.90;0.63;;;5.40;95.40;;;;;;5005555;28;20084;-72
2023/12/30 02:08:14;;;;;;;0.50;0.40;;;5.40;95.20;;;;;;5003366;28;20327;-72
2023/12/30 02:10:40;;;;;;;0.50;0.30;;;5.40;95.00;;;;;;5003791;28;20026;-72
2023/12/30 02:13:05;;;;;;;0.28;0.28;;;5.30;95.10;;;;;;4981660;28;20458;-72
2023/12/30 02:15:31;;;;;;;0.30;0.30;;;5.30;95.40;;;;;;4997140;28;20101;-72
2023/12/30 02:17:56;;;;;;;1.23;0.47;;;5.30;95.30;;;;;;4984200;28;20033;-72
2023/12/30 02:20:23;;;;;;;3.65;0.50;;;5.10;95.80;;;;;;5004133;28;20037;-72
2023/12/30 02:22:48;;;;;;;3.17;0.88;;;5.20;95.80;;;;;;5000436;28;20061;-72
2023/12/30 02:25:15;;;;;;;0.40;0.35;;;5.20;95.80;;;;;;5000076;28;20037;-72
2023/12/30 02:27:44;;;;;;;0.65;0.40;;;5.10;95.60;;;;;;4998347;28;20136;-72
2023/12/30 02:30:11;;;;;;;0.45;0.40;;;5.10;95.60;;;;;;4997385;28;20085;-72
2023/12/30 02:32:37;;;;;;;0.98;0.50;;;5.10;95.50;;;;;;4981384;28;20034;-72
2023/12/30 02:35:03;;;;;;;0.80;0.40;;;5.10;95.60;;;;;;4981517;28;20440;-72
2023/12/30 02:37:28;;;;;;;2.15;0.68;;;5.10;95.40;;;;;;4999382;28;20073;-71
2023/12/30 02:39:53;;;;;;;0.70;0.40;;;5.10;95.40;;;;;;4997105;28;20060;-72
2023/12/30 02:42:19;;;;;;;0.38;0.38;;;5.20;95.20;;;;;;5000645;28;20037;-72
2023/12/30 02:44:44;;;;;;;0.90;0.30;;;5.10;95.30;;;;;;4996713;28;20050;-72
2023/12/30 02:47:10;;;;;;;0.20;0.20;;;5.10;95.30;;;;;;4995675;28;20033;-72
2023/12/30 02:49:36;;;;;;;1.25;0.57;;;5.10;95.10;;;;;;4998754;28;20037;-73
2023/12/30 02:52:01;;;;;;;1.13;0.40;;;5.10;95.30;;;;;;4978678;28;20351;-71
2023/12/30 02:54:30;;;;;;;1.45;0.70;;;5.10;95.40;;;;;;5001114;28;20114;-72
2023/12/30 02:56:56;;;;;;;2.17;0.30;;;5.10;95.30;;;;;;4981713;28;20022;-72
2023/12/30 02:59:21;;;;;;;1.65;0.40;;;5.10;95.60;;;;;;4997661;28;20133;-72
2023/12/30 03:01:46;;;;;;;4.45;0.55;;;5.10;95.40;;;;;;5001924;28;20398;-72
2023/12/30 03:04:12;;;;;;;3.20;0.70;;;5.10;95.50;;;;;;4998477;28;20029;-72
2023/12/30 03:06:37;;;;;;;0.95;0.50;;;5.20;95.30;;;;;;4983800;28;20129;-72
2023/12/30 03:09:03;;;;;;;0.90;0.40;;;5.20;95.10;;;;;;4991158;28;20038;-72
2023/12/30 03:11:29;;;;;;;0.98;0.50;;;5.30;95.30;;;;;;5001118;28;20029;-72
2023/12/30 03:13:54;;;;;;;3.03;0.40;;;5.40;94.90;;;;;;4990381;28;20416;-71
2023/12/30 03:16:20;;;;;;;1.40;0.57;;;5.50;94.70;;;;;;4995244;28;20030;-72
2023/12/30 03:18:46;;;;;;;1.17;0.50;;;5.50;94.70;;;;;;4997078;28;20049;-72
2023/12/30 03:21:14;;;;;;;0.80;0.57;;;5.50;94.60;;;;;;4982741;28;20115;-72
2023/12/30 03:23:40;;;;;;;0.38;0.38;;;5.60;94.30;;;;;;4998845;28;20072;-72
2023/12/30 03:26:08;;;;;;;0.40;0.28;;;5.60;94.30;;;;;;5000838;28;20066;-72
2023/12/30 03:28:33;;;;;;;0.77;0.40;;;5.60;94.30;;;;;;4996705;28;20124;-72
2023/12/30 03:30:59;;;;;;;1.95;0.50;;;5.80;93.20;;;;;;4980125;28;20030;-71
2023/12/30 03:33:25;;;;;;;1.00;0.40;;;5.80;93.40;;;;;;4982407;28;20025;-72
2023/12/30 03:35:50;;;;;;;0.75;0.40;;;5.80;93.50;;;;;;5000096;28;20092;-71
2023/12/30 03:38:16;;;;;;;1.75;0.60;;;5.80;93.50;;;;;;5003172;28;20078;-72
2023/12/30 03:40:43;;;;;;;2.83;0.43;;;5.90;93.50;;;;;;4999164;28;20442;-72
2023/12/30 03:43:08;;;;;;;1.92;0.85;;;5.80;93.70;;;;;;4980073;28;20046;-72
2023/12/30 03:45:34;;;;;;;2.50;0.68;;;5.90;93.60;;;;;;4984264;28;20049;-72
2023/12/30 03:47:59;;;;;;;1.50;0.70;;;5.90;93.80;;;;;;4996855;28;20588;-72
2023/12/30 03:50:25;;;;;;;1.27;0.95;;;5.80;94.10;;;;;;5001424;28;20035;-73
2023/12/30 03:52:51;;;;;;;0.82;0.40;;;5.80;94.30;;;;;;4999745;28;20030;-73
2023/12/30 03:55:17;;;;;;;1.05;0.60;;;5.80;94.20;;;;;;4996777;28;20439;-73
2023/12/30 03:57:42;;;;;;;0.40;0.40;;;5.80;94.10;;;;;;4999121;28;20183;-73
2023/12/30 04:00:08;;;;;;;1.60;0.40;;;5.80;94.30;;;;;;4997610;28;20084;-73
2023/12/30 04:02:34;;;;;;;0.77;0.75;;;5.80;94.20;;;;;;4997192;28;20060;-73
2023/12/30 04:04:59;;;;;;;3.08;0.75;;;5.90;93.90;;;;;;5000628;28;20086;-73
2023/12/30 04:07:25;;;;;;;0.68;0.55;;;5.80;94.10;;;;;;4997343;28;20044;-73
2023/12/30 04:09:50;;;;;;;0.43;0.30;;;5.80;94.10;;;;;;4997372;28;20058;-73
2023/12/30 04:12:16;;;;;;;6.20;0.57;;;5.80;94.00;;;;;;5000860;28;20057;-73
2023/12/30 04:14:41;;;;;;;2.90;0.40;;;5.80;94.20;;;;;;4996148;28;20461;-73
2023/12/30 04:17:07;;;;;;;0.85;0.32;;;5.80;93.70;;;;;;4998367;28;20042;-74
2023/12/30 04:19:32;;;;;;;1.38;0.20;;;5.70;94.00;;;;;;5002824;28;20071;-73
2023/12/30 04:21:58;;;;;;;1.40;0.63;;;5.80;93.90;;;;;;4990302;28;20073;-73
2023/12/30 04:24:23;;;;;;;1.88;0.38;;;5.70;94.10;;;;;;4999826;28;20038;-73
2023/12/30 04:26:50;;;;;;;2.05;0.38;;;5.60;94.20;;;;;;4995220;28;20034;-73
2023/12/30 04:29:15;;;;;;;0.43;0.20;;;5.60;94.20;;;;;;4988628;28;20026;-73
2023/12/30 04:31:41;;;;;;;0.98;0.60;;;5.60;94.20;;;;;;4990560;28;20041;-73
2023/12/30 04:34:06;;;;;;;1.45;0.40;;;5.60;94.60;;;;;;4994692;28;20038;-73
2023/12/30 04:36:32;;;;;;;2.53;0.30;;;5.60;94.50;;;;;;4997111;28;20133;-73
2023/12/30 04:38:57;;;;;;;2.55;0.55;;;5.60;94.90;;;;;;4998651;28;20113;-73
2023/12/30 04:41:23;;;;;;;0.45;0.43;;;5.60;94.90;;;;;;4996434;28;20041;-73
2023/12/30 04:43:48;;;;;;;0.75;0.40;;;5.60;95.00;;;;;;4992080;28;20149;-73
2023/12/30 04:46:14;;;;;;;1.38;0.73;;;5.60;95.10;;;;;;4999832;28;20058;-73
2023/12/30 04:48:40;;;;;;;0.80;0.75;;;5.60;95.10;;;;;;4981265;28;20526;-72
2023/12/30 04:51:05;;;;;;;1.75;0.77;;;5.50;95.20;;;;;;4998644;28;20111;-73
2023/12/30 04:53:31;;;;;;;1.27;0.65;;;5.40;95.90;;;;;;4997449;28;20475;-73
2023/12/30 04:55:56;;;;;;;0.57;0.35;;;5.30;96.20;;;;;;4995774;28;20049;-73
2023/12/30 04:58:22;;;;;;;2.15;0.45;;;5.30;96.40;;;;;;4993112;28;20393;-73
2023/12/30 05:00:48;;;;;;;1.58;0.70;;;5.30;96.60;;;;;;4981479;28;20053;-73
2023/12/30 05:03:16;;;;;;;3.88;0.65;;;5.30;96.80;;;;;;4998413;28;20030;-73
2023/12/30 05:05:42;;;;;;;1.73;0.60;;;5.30;96.60;;;;;;4999636;28;20074;-73
2023/12/30 05:08:07;;;;;;;0.60;0.40;;;5.30;96.50;;;;;;5001995;28;20066;-73
2023/12/30 05:10:33;;;;;;;0.30;0.30;;;5.40;95.90;;;;;;4977717;28;20325;-73
2023/12/30 05:13:00;;;;;;;7.30;0.45;;;5.40;96.00;;;;;;4977397;28;20469;-73
2023/12/30 05:15:26;;;;;;;0.68;0.35;;;5.30;96.60;;;;;;4976919;28;20044;-72
2023/12/30 05:17:53;;;;;;;2.40;0.40;;;5.30;97.00;;;;;;4979080;28;20025;-73
2023/12/30 05:20:19;;;;;;;2.67;0.57;;;5.30;97.30;;;;;;4995635;28;20036;-73
2023/12/30 05:22:44;;;;;;;3.53;0.40;;;5.20;97.20;;;;;;4992514;28;20034;-73
2023/12/30 05:25:10;;;;;;;0.65;0.47;;;5.30;97.30;;;;;;4980753;28;20046;-73
2023/12/30 05:27:37;;;;;;;1.13;0.40;;;5.30;97.30;;;;;;4994059;28;20129;-71
2023/12/30 05:30:07;;;;;;;1.73;0.35;;;5.30;97.30;;;;;;4979764;28;20453;-71
2023/12/30 05:32:33;;;;;;;2.88;1.35;;;5.30;97.00;;;;;;4980862;28;20558;-71
2023/12/30 05:34:59;;;;;;;0.73;0.40;;;5.40;96.60;;;;;;4982263;28;20132;-71
2023/12/30 05:37:24;;;;;;;1.80;0.65;;;5.50;96.10;;;;;;4997103;28;20439;-71
2023/12/30 05:39:50;;;;;;;0.30;0.30;;;5.40;96.10;;;;;;4977895;28;20062;-71
2023/12/30 05:42:15;;;;;;;1.08;0.30;;;5.50;95.80;;;;;;4979550;28;20030;-71
2023/12/30 05:44:41;;;;;;;2.38;0.52;;;5.50;96.00;;;;;;5001319;28;20070;-71
2023/12/30 05:47:06;;;;;;;0.57;0.40;;;5.60;95.30;;;;;;4984354;28;20117;-71
2023/12/30 05:49:33;;;;;;;0.30;0.30;;;5.60;95.50;;;;;;5000170;28;20068;-72
2023/12/30 05:51:58;;;;;;;0.50;0.45;;;5.60;95.40;;;;;;4999804;28;20042;-71
2023/12/30 05:54:26;;;;;;;0.50;0.25;;;5.60;94.80;;;;;;4985517;28;20034;-71
2023/12/30 05:56:53;;;;;;;0.25;0.25;;;5.50;95.30;;;;;;5001810;28;20037;-71
2023/12/30 05:59:18;;;;;;;0.75;0.75;;;5.60;94.90;;;;;;4996076;28;20045;-71
2023/12/30 06:01:45;;;;;;;0.30;0.28;;;5.60;94.80;;;;;;5001227;28;20026;-71
2023/12/30 06:04:11;;;;;;;1.50;0.25;;;5.60;94.70;;;;;;5001171;28;20450;-72
2023/12/30 06:06:37;;;;;;;0.40;0.35;;;5.60;94.80;;;;;;5000907;28;20027;-71
2023/12/30 06:09:02;;;;;;;4.25;0.68;;;5.70;94.00;;;;;;5000400;28;20171;-71
2023/12/30 06:11:28;;;;;;;3.55;0.43;;;5.70;93.90;;;;;;4998994;28;20030;-72
2023/12/30 06:13:54;;;;;;;0.30;0.30;;;5.60;94.20;;;;;;4999658;28;20060;-71
2023/12/30 06:16:20;;;;;;;0.60;0.50;;;5.70;94.10;;;;;;4995830;28;20068;-72
2023/12/30 06:18:45;;;;;;;0.93;0.40;;;5.60;94.00;;;;;;4981456;28;20030;-72
2023/12/30 06:21:11;;;;;;;1.02;0.35;;;5.60;94.00;;;;;;5000642;28;20407;-72
2023/12/30 06:23:36;;;;;;;2.53;0.30;;;5.70;93.80;;;;;;5003163;28;20064;-72
2023/12/30 06:26:02;;;;;;;1.05;0.55;;;5.70;93.60;;;;;;5000648;28;20030;-72
2023/12/30 06:28:27;;;;;;;1.33;0.60;;;5.70;93.30;;;;;;4995001;28;20030;-72
2023/12/30 06:30:53;;;;;;;0.82;0.43;;;5.70;93.30;;;;;;5003006;28;20344;-71
2023/12/30 06:33:21;;;;;;;0.88;0.28;;;5.70;93.50;;;;;;4996764;28;20069;-72
2023/12/30 06:35:46;;;;;;;1.48;0.40;;;5.80;93.20;;;;;;4983845;28;20467;-72
2023/12/30 06:38:14;;;;;;;1.55;0.63;;;5.80;93.00;;;;;;4979192;28;20060;-72
2023/12/30 06:40:41;;;;;;;4.22;0.30;;;5.80;93.00;;;;;;5005774;28;20038;-73
2023/12/30 06:43:07;;;;;;;1.50;0.47;;;5.80;92.60;;;;;;5001607;28;20462;-73
2023/12/30 06:45:33;;;;;;;1.00;0.70;;;5.80;93.00;;;;;;5003851;28;20450;-73
2023/12/30 06:47:58;;;;;;;0.93;0.40;;;5.80;92.70;;;;;;4991428;28;20084;-73
2023/12/30 06:50:24;;;;;;;3.33;1.25;;;5.80;92.60;;;;;;5005393;28;20113;-73
2023/12/30 06:52:50;;;;;;;1.42;0.40;;;5.80;92.50;;;;;;5005737;28;20117;-73
2023/12/30 06:55:16;;;;;;;3.63;0.50;;;5.80;92.50;;;;;;4990408;28;20026;-73
2023/12/30 06:57:41;;;;;;;0.93;0.50;;;5.90;91.90;;;;;;4985157;28;20108;-73
2023/12/30 07:00:07;;;;;;;1.13;0.30;;;5.80;92.50;;;;;;5004650;28;20030;-73
2023/12/30 07:02:33;;;;;;;0.50;0.30;;;5.70;92.50;;;;;;4986839;28;20208;-73
2023/12/30 07:04:59;;;;;;;0.30;0.28;;;5.80;92.10;;;;;;5002978;28;20046;-73
2023/12/30 07:07:24;;;;;;;3.10;0.63;;;5.80;92.10;;;;;;5007455;28;20050;-73
2023/12/30 07:09:50;;;;;;;3.70;0.80;;;5.80;92.20;;;;;;5000278;28;20125;-73
2023/12/30 07:12:16;;;;;;;1.45;0.35;;;5.70;92.50;;;;;;4988443;28;20026;-73
2023/12/30 07:14:42;;;;;;;1.65;0.52;;;5.70;92.40;;;;;;4983192;28;20034;-73
2023/12/30 07:17:07;;;;;;;4.10;0.40;;;5.70;92.30;;;;;;5003355;28;20048;-73
2023/12/30 07:19:33;;;;;;;0.50;0.28;;;5.70;92.10;;;;;;5002150;28;20112;-73
2023/12/30 07:21:59;;;;;;;2.90;0.50;;;5.70;92.10;;;;;;5007272;28;20099;-73
2023/12/30 07:24:25;;;;;;;1.42;0.50;;;5.70;92.10;;;;;;5002616;28;20300;-73
2023/12/30 07:26:50;;;;;;;1.48;0.47;;;5.70;92.20;;;;;;4996200;28;20037;-73
2023/12/30 07:29:16;;;;;;;3.25;0.40;;;5.70;92.20;;;;;;4996402;28;20423;-73
2023/12/30 07:31:41;;;;;;;0.45;0.25;;;5.60;92.30;;;;;;4998844;28;20062;-72
2023/12/30 07:34:07;;;;;;;1.70;0.57;;;5.60;92.50;;;;;;5001204;28;20100;-72
2023/12/30 07:36:33;;;;;;;1.63;0.55;;;5.60;92.60;;;;;;5006125;28;20177;-72
2023/12/30 07:38:58;;;;;;;1.55;0.43;;;5.50;92.80;;;;;;4993740;28;20052;-71
2023/12/30 07:41:23;;;;;;;0.70;0.47;;;5.60;92.40;;;;;;4982430;28;20414;-72
2023/12/30 07:43:49;;;;;;;2.70;0.90;;;5.60;92.10;;;;;;4994073;28;20038;-72
2023/12/30 07:46:15;;;;;;;1.25;0.32;;;5.60;92.40;;;;;;5004845;28;20358;-72
2023/12/30 07:48:42;;;;;;;2.95;0.38;;;5.60;92.50;;;;;;5002082;28;20163;-72
2023/12/30 07:51:07;;;;;;;1.05;0.55;;;5.60;92.50;;;;;;4995390;28;20038;-72
2023/12/30 07:53:33;;;;;;;2.13;0.50;;;5.60;92.60;;;;;;5004050;28;20450;-72
2023/12/30 07:55:58;;;;;;;1.83;0.68;;;5.60;92.60;;;;;;4997937;28;20124;-72
2023/12/30 07:58:24;;;;;;;0.93;0.50;;;5.60;92.50;;;;;;4998128;28;20117;-72
2023/12/30 08:00:49;;;;;;;1.40;0.30;;;5.60;92.40;;;;;;4979718;28;20026;-71
2023/12/30 08:03:15;;;;;;;1.52;0.70;;;5.70;92.50;;;;;;4999248;28;20426;-71
2023/12/30 08:05:40;;;;;;;4.65;0.50;;;5.60;92.60;;;;;;4983112;28;20023;-72
2023/12/30 08:08:08;;;;;;;0.55;0.32;;;5.70;92.50;;;;;;4996565;28;20030;-72
2023/12/30 08:10:34;;;;;;;0.80;0.30;;;5.60;92.90;;;;;;4996725;28;20022;-72
2023/12/30 08:12:59;;;;;;;1.88;0.80;;;5.70;92.80;;;;;;5003654;28;20037;-71
2023/12/30 08:15:25;;;;;;;1.27;0.32;;;5.70;92.40;;;;;;4983269;28;20030;-72
2023/12/30 08:17:51;;;;;;;2.63;0.55;;;5.70;92.40;;;;;;5005319;28;20183;-72
2023/12/30 08:20:16;;;;;;;2.33;0.35;;;5.80;92.10;;;;;;5000481;28;20109;-72
2023/12/30 08:22:41;;;;;;;0.85;0.47;;;5.80;92.00;;;;;;5002628;28;20034;-72
2023/12/30 08:25:10;;;;;;;3.35;0.85;;;5.70;92.50;;;;;;4982948;28;20402;-72
2023/12/30 08:27:39;;;;;;;0.20;0.20;;;5.80;92.10;;;;;;4997650;28;20044;-71
2023/12/30 08:30:05;;;;;;;0.57;0.40;;;5.70;92.50;;;;;;4992959;28;20316;-72
2023/12/30 08:32:31;;;;;;;2.90;0.50;;;5.70;92.70;;;;;;4996336;28;20378;-71
2023/12/30 08:34:57;;;;;;;0.88;0.52;;;5.70;92.70;;;;;;4993639;28;20064;-71
2023/12/30 08:37:23;;;;;;;1.73;0.38;;;5.70;92.60;;;;;;5001423;28;20072;-71
2023/12/30 08:39:48;;;;;;;0.35;0.30;;;5.70;93.10;;;;;;4970212;28;20400;-71
2023/12/30 08:42:14;;;;;;;1.40;0.30;;;5.60;93.90;;;;;;4973596;28;20084;-71
2023/12/30 08:44:45;;;;;;;1.30;0.50;;;5.50;94.50;;;;;;4983878;28;20136;-71
2023/12/30 08:47:11;;;;;;;1.20;0.47;;;5.50;94.50;;;;;;4998423;28;20113;-72
2023/12/30 08:49:37;;;;;;;0.82;0.40;;;5.40;94.40;;;;;;5002320;28;20458;-72
2023/12/30 08:52:04;;;;;;;2.17;0.50;;;5.40;94.50;;;;;;4995163;28;20030;-72
2023/12/30 08:54:30;;;;;;;2.90;0.60;;;5.40;94.70;;;;;;4986285;28;20058;-71
2023/12/30 08:56:55;;;;;;;0.40;0.40;;;5.40;94.60;;;;;;4996008;28;20077;-71
2023/12/30 08:59:22;;;;;;;3.45;0.50;;;5.50;94.40;;;;;;4997602;28;20121;-71
2023/12/30 09:01:48;;;;;;;0.85;0.38;;;5.50;94.40;;;;;;4991882;28;20041;-72
2023/12/30 09:04:14;;;;;;;0.65;0.40;;;5.50;94.30;;;;;;4994406;28;20088;-71
2023/12/30 09:06:39;;;;;;;3.20;1.00;;;5.60;93.70;;;;;;4994851;28;20399;-72
2023/12/30 09:09:05;;;;;;;4.82;0.52;;;5.70;93.50;;;;;;4996674;28;20434;-71
2023/12/30 09:11:38;;;;;;;0.52;0.38;;;5.70;93.40;;;;;;4994823;28;20049;-71
2023/12/30 09:14:05;;;;;;;1.63;0.70;;;5.70;93.40;;;;;;4993760;28;20103;-70
2023/12/30 09:16:32;;;;;;;1.00;0.40;;;5.80;93.40;;;;;;4992254;28;20091;-71
2023/12/30 09:18:57;;;;;;;2.85;1.15;;;5.80;93.70;;;;;;4994278;28;20038;-71
2023/12/30 09:21:23;;;;;;;1.10;0.50;;;5.80;93.60;;;;;;4995107;28;20110;-72
2023/12/30 09:23:48;;;;;;;0.82;0.30;;;5.80;93.60;;;;;;4997615;28;20336;-72
2023/12/30 09:26:16;;;;;;;0.90;0.30;;;5.80;93.30;;;;;;4999453;28;20442;-72
2023/12/30 09:28:41;;;;;;;3.70;0.40;;;5.80;93.20;;;;;;4990059;28;20083;-72
2023/12/30 09:31:07;;;;;;;0.70;0.32;;;5.90;92.50;;;;;;4999806;28;20061;-72
2023/12/30 09:33:32;;;;;;;0.73;0.60;;;6.00;92.20;;;;;;4997192;28;20149;-72
2023/12/30 09:35:58;;;;;;;1.83;0.40;;;5.90;92.70;;;;;;4995711;28;20439;-71
2023/12/30 09:38:24;;;;;;;2.10;0.75;;;6.00;92.20;;;;;;4997249;28;20110;-72
2023/12/30 09:40:51;;;;;;;2.70;0.90;;;6.00;92.40;;;;;;4998655;28;20366;-71
2023/12/30 09:43:25;;;;;;;3.28;0.75;;;6.10;92.30;;;;;;4994991;28;20049;-73
2023/12/30 09:45:51;;;;;;;4.68;1.00;;;6.10;91.70;;;;;;4960204;28;998976;-72
2023/12/30 09:48:20;;;;;;;0.32;0.32;;;6.10;91.70;;;;;;4997015;28;20096;-72
2023/12/30 09:50:49;;;;;;;3.65;1.45;;;6.10;92.00;;;;;;5004091;28;20140;-72
2023/12/30 09:53:16;;;;;;;0.63;0.45;;;6.20;91.70;;;;;;4995003;28;20352;-73
2023/12/30 09:55:44;;;;;;;0.50;0.40;;;6.10;91.70;;;;;;4999585;28;20038;-72
2023/12/30 09:58:10;;;;;;;2.65;0.63;;;6.20;91.30;;;;;;4998484;28;20465;-73
2023/12/30 10:00:39;;;;;;;1.50;0.60;;;6.20;91.20;;;;;;4995065;28;20042;-70
2023/12/30 10:03:05;;;;;;;1.30;0.70;;;6.20;91.60;;;;;;4990773;28;20030;-71
2023/12/30 10:05:31;;;;;;;3.63;0.55;;;6.20;91.10;;;;;;5004633;28;20113;-72
2023/12/30 10:07:57;;;;;;;1.92;0.55;;;6.20;91.20;;;;;;5004853;28;20750;-70
2023/12/30 10:10:44;;;;;;;0.93;0.50;;;6.30;90.90;;;;;;4999892;28;20038;-70
2023/12/30 10:13:10;;;;;;;3.72;0.60;;;6.30;90.60;;;;;;4998280;28;20030;-70
2023/12/30 10:15:36;;;;;;;1.58;0.55;;;6.30;90.70;;;;;;5001128;28;20037;-72
2023/12/30 10:18:04;;;;;;;0.90;0.65;;;6.30;91.10;;;;;;4992441;28;20343;-73
2023/12/30 10:20:30;;;;;;;2.38;0.75;;;6.30;90.70;;;;;;4999587;28;20421;-70
2023/12/30 10:22:55;;;;;;;1.10;0.57;;;6.40;90.60;;;;;;4995252;28;20034;-70
2023/12/30 10:25:21;;;;;;;0.77;0.38;;;6.40;90.40;;;;;;4998888;28;20049;-72
2023/12/30 10:27:48;;;;;;;0.70;0.38;;;6.50;90.40;;;;;;5001879;28;20036;-72
2023/12/30 10:30:19;;;;;;;5.88;0.70;;;6.60;90.30;;;;;;4996370;28;20346;-73
2023/12/30 10:32:46;;;;;;;2.42;0.52;;;6.60;89.90;;;;;;5003712;28;20331;-72
2023/12/30 10:35:15;;;;;;;2.65;0.35;;;6.70;89.60;;;;;;4997343;28;20042;-72
2023/12/30 10:37:42;;;;;;;1.05;0.52;;;6.60;89.80;;;;;;4999382;28;20044;-72
2023/12/30 10:40:09;;;;;;;4.28;0.93;;;6.60;90.20;;;;;;4998106;28;20050;-73
2023/12/30 10:42:35;;;;;;;5.10;0.75;;;6.60;90.30;;;;;;4996407;28;20184;-77
2023/12/30 10:45:00;;;;;;;2.75;0.45;;;6.70;89.60;;;;;;4995488;28;20417;-72
2023/12/30 10:47:27;;;;;;;1.38;0.30;;;6.70;89.80;;;;;;4998615;28;20124;-71
2023/12/30 10:49:58;;;;;;;0.10;0.10;;;6.70;89.10;;;;;;5000190;28;20448;-71
2023/12/30 10:52:26;;;;;;;0.20;0.20;;;6.80;88.70;;;;;;4996422;28;20056;-72
2023/12/30 10:55:00;;;;;;;5.93;1.23;;;6.80;88.90;;;;;;4999996;28;20106;-73
2023/12/30 10:57:30;;;;;;;0.60;0.50;;;6.80;88.70;;;;;;5002129;28;20041;-72
2023/12/30 10:59:57;;;;;;;0.80;0.55;;;6.70;89.20;;;;;;4994224;28;21095;-72
2023/12/30 11:02:23;;;;;;;3.20;0.68;;;6.70;89.10;;;;;;4979339;28;20034;-71
2023/12/30 11:04:50;;;;;;;1.58;0.50;;;6.80;88.90;;;;;;5005337;28;20474;-72
2023/12/30 11:07:17;;;;;;;1.55;0.50;;;6.90;89.50;;;;;;5000108;28;20053;-72
2023/12/30 11:09:43;;;;;;;0.60;0.20;;;6.80;89.10;;;;;;5004310;28;20053;-70
2023/12/30 11:12:09;;;;;;;0.63;0.50;;;6.80;89.40;;;;;;4975824;28;20038;-70
2023/12/30 11:14:36;;;;;;;4.47;1.00;;;6.80;89.50;;;;;;4987500;28;20045;-72
2023/12/30 11:17:01;;;;;;;0.50;0.50;;;6.80;88.90;;;;;;4975914;28;20256;-75
2023/12/30 11:19:29;;;;;;;2.85;0.57;;;6.80;89.90;;;;;;4998665;28;20116;-72
2023/12/30 11:21:55;;;;;;;0.95;0.30;;;6.80;89.40;;;;;;4999629;28;20034;-72
2023/12/30 11:24:22;;;;;;;2.70;0.50;;;6.80;89.00;;;;;;5000499;28;20099;-72
2023/12/30 11:26:48;;;;;;;1.27;0.45;;;6.80;89.40;;;;;;5002101;28;20119;-72
2023/12/30 11:29:16;;;;;;;1.17;0.60;;;6.90;88.90;;;;;;4997754;28;20490;-72
2023/12/30 11:31:44;;;;;;;1.48;0.70;;;6.90;89.00;;;;;;5003375;28;20462;-73
2023/12/30 11:34:10;;;;;;;0.73;0.50;;;6.90;89.20;;;;;;4998813;28;20059;-71
2023/12/30 11:36:39;;;;;;;3.83;0.90;;;6.90;88.50;;;;;;4998744;28;20034;-72
2023/12/30 11:39:07;;;;;;;2.00;0.95;;;7.00;88.00;;;;;;4998281;28;20046;-72
2023/12/30 11:41:33;;;;;;;1.73;0.32;;;7.10;88.10;;;;;;5006018;28;20038;-77
2023/12/30 11:44:05;;;;;;;1.08;0.50;;;7.10;87.70;;;;;;4977344;28;20033;-72
2023/12/30 11:46:31;;;;;;;1.13;0.57;;;7.10;87.60;;;;;;4998635;28;20066;-71
2023/12/30 11:48:56;;;;;;;0.50;0.22;;;7.10;87.30;;;;;;5004805;28;20037;-71
2023/12/30 11:51:24;;;;;;;0.93;0.45;;;7.10;88.10;;;;;;4983407;28;20041;-71
2023/12/30 11:53:49;;;;;;;3.30;1.00;;;7.10;87.00;;;;;;4998197;28;20030;-72
2023/12/30 11:56:16;;;;;;;1.75;0.43;;;7.10;86.90;;;;;;4999642;28;20135;-78
2023/12/30 11:58:43;;;;;;;0.75;0.50;;;7.10;87.00;;;;;;4977288;28;20466;-72
2023/12/30 12:01:08;;;;;;;2.28;0.40;;;7.10;86.70;;;;;;4993029;28;20040;-69
2023/12/30 12:03:34;;;;;;;1.17;0.40;;;7.10;86.70;;;;;;4992317;28;20399;-71
2023/12/30 12:05:59;;;;;;;2.72;0.75;;;7.10;86.90;;;;;;4995663;28;20087;-74
2023/12/30 12:08:25;;;;;;;1.00;0.45;;;7.10;86.70;;;;;;4977157;28;20102;-73
2023/12/30 12:10:50;;;;;;;1.75;0.47;;;7.10;86.70;;;;;;4987231;28;20034;-70
2023/12/30 12:13:24;;;;;;;1.00;0.40;;;7.10;86.60;;;;;;4994664;28;20080;-69
2023/12/30 12:15:50;;;;;;;1.00;0.60;;;7.10;86.60;;;;;;4996614;28;20412;-69
2023/12/30 12:18:17;;;;;;;1.20;0.50;;;7.20;85.60;;;;;;5004458;28;20049;-69
2023/12/30 12:20:43;;;;;;;1.58;0.45;;;7.30;85.70;;;;;;5005290;28;20026;-69
2023/12/30 12:23:09;;;;;;;0.63;0.35;;;7.30;85.80;;;;;;4995141;28;20363;-75
2023/12/30 12:25:35;;;;;;;0.52;0.30;;;7.30;84.80;;;;;;5001446;28;20025;-78
2023/12/30 12:28:00;;;;;;;1.15;0.43;;;7.30;85.60;;;;;;4997769;28;20038;-75
2023/12/30 12:30:26;;;;;;;6.05;0.32;;;7.30;85.60;;;;;;4983086;28;20395;-72
2023/12/30 12:32:54;;;;;;;2.63;0.65;;;7.30;85.20;;;;;;4996574;28;20113;-74
2023/12/30 12:35:21;;;;;;;1.77;0.75;;;7.30;85.30;;;;;;4993994;28;20022;-71
2023/12/30 12:37:47;;;;;;;1.08;0.40;;;7.30;85.10;;;;;;4992078;28;20368;-71
2023/12/30 12:40:12;;;;;;;1.02;0.65;;;7.30;84.50;;;;;;4994562;28;20128;-70
2023/12/30 12:42:38;;;;;;;1.50;0.80;;;7.30;84.70;;;;;;4996892;28;20042;-70
2023/12/30 12:45:04;;;;;;;1.80;0.60;;;7.20;84.90;;;;;;4993615;28;20152;-70
2023/12/30 12:47:30;;;;;;;2.97;0.55;;;7.20;84.60;;;;;;5000822;28;20064;-70
2023/12/30 12:49:56;;;;;;;1.65;0.43;;;7.10;84.50;;;;;;4996551;28;20427;-70
2023/12/30 12:52:22;;;;;;;1.13;0.40;;;7.10;84.90;;;;;;5001870;28;20041;-70